createdAt,value
2023-07-18T00:00:51.537Z,87.90
2023-07-18T00:01:51.498Z,87.99
2023-07-18T00:02:51.361Z,86.84
2023-07-18T00:04:12.316Z,87.51
2023-07-18T00:04:51.182Z,87.76
2023-07-18T00:05:51.122Z,88.52
2023-07-18T00:06:51.027Z,88.33
2023-07-18T00:07:50.949Z,88.33
2023-07-18T00:08:50.871Z,88.90
2023-07-18T00:10:11.764Z,88.52
2023-07-18T00:10:50.711Z,88.81
2023-07-18T00:11:50.642Z,88.43
2023-07-18T00:12:50.569Z,88.43
2023-07-18T00:13:50.474Z,88.62
2023-07-18T00:14:50.409Z,89.00
2023-07-18T00:16:11.340Z,88.23
2023-07-18T00:16:50.246Z,88.43
2023-07-18T00:17:50.224Z,88.23
2023-07-18T00:18:50.101Z,88.66
2023-07-18T00:19:50.029Z,88.85
2023-07-18T00:20:49.949Z,88.85
2023-07-18T00:22:10.854Z,88.76
2023-07-18T00:22:49.881Z,89.04
2023-07-18T00:23:49.714Z,89.62
2023-07-18T00:24:49.630Z,89.52
2023-07-18T00:25:49.550Z,89.62
2023-07-18T00:26:49.472Z,89.33
2023-07-18T00:28:10.393Z,89.52
2023-07-18T00:28:49.318Z,89.14
2023-07-18T00:29:49.254Z,88.47
2023-07-18T00:30:49.171Z,87.90
2023-07-18T00:31:49.134Z,88.62
2023-07-18T00:32:49.138Z,88.23
2023-07-18T00:34:09.924Z,88.43
2023-07-18T00:34:48.857Z,88.81
2023-07-18T00:35:48.781Z,89.09
2023-07-18T00:36:48.708Z,89.95
2023-07-18T00:37:48.626Z,89.58
2023-07-18T00:38:48.560Z,89.67
2023-07-18T00:40:09.450Z,90.15
2023-07-18T00:40:48.389Z,89.58
2023-07-18T00:41:49.399Z,89.76
2023-07-18T00:42:48.237Z,90.15
2023-07-18T00:43:48.169Z,90.63
2023-07-18T00:44:48.083Z,90.58
2023-07-18T00:46:09.026Z,90.20
2023-07-18T00:46:47.941Z,91.16
2023-07-18T00:47:47.875Z,92.49
2023-07-18T00:48:47.770Z,92.69
2023-07-18T00:49:47.692Z,92.59
2023-07-18T00:50:47.609Z,93.16
2023-07-18T00:52:08.525Z,93.16
2023-07-18T00:52:47.457Z,93.16
2023-07-18T00:53:47.398Z,92.88
2023-07-18T00:54:47.308Z,93.74
2023-07-18T00:55:47.225Z,92.97
2023-07-18T00:56:47.146Z,93.35
2023-07-18T00:58:08.053Z,93.26
2023-07-18T00:58:46.997Z,93.16
2023-07-18T00:59:46.914Z,93.26
2023-07-18T01:00:46.838Z,92.59
2023-07-18T01:01:46.793Z,92.30
2023-07-18T01:02:46.979Z,93.35
2023-07-18T01:04:07.603Z,92.45
2023-07-18T01:04:46.530Z,92.21
2023-07-18T01:05:46.459Z,91.68
2023-07-18T01:06:46.416Z,90.44
2023-07-18T01:07:46.297Z,89.96
2023-07-18T01:08:46.229Z,90.44
2023-07-18T01:10:07.129Z,89.20
2023-07-18T01:10:46.064Z,89.29
2023-07-18T01:11:45.980Z,90.25
2023-07-18T01:12:45.942Z,90.63
2023-07-18T01:13:45.825Z,91.68
2023-07-18T01:14:45.754Z,92.35
2023-07-18T01:16:06.697Z,92.25
2023-07-18T01:16:45.598Z,92.35
2023-07-18T01:17:45.548Z,92.16
2023-07-18T01:18:45.440Z,92.64
2023-07-18T01:19:45.356Z,92.54
2023-07-18T01:20:45.286Z,92.54
2023-07-18T01:22:06.197Z,93.21
2023-07-18T01:22:45.197Z,93.40
2023-07-18T01:23:45.054Z,93.79
2023-07-18T01:24:44.976Z,93.98
2023-07-18T01:25:44.913Z,93.21
2023-07-18T01:26:44.821Z,93.12
2023-07-18T01:28:05.722Z,93.02
2023-07-18T01:28:44.662Z,93.12
2023-07-18T01:29:44.579Z,92.45
2023-07-18T01:30:44.504Z,90.06
2023-07-18T01:31:44.441Z,90.82
2023-07-18T01:32:44.373Z,89.96
2023-07-18T01:34:05.249Z,89.87
2023-07-18T01:34:44.194Z,90.63
2023-07-18T01:35:44.107Z,91.16
2023-07-18T01:36:44.059Z,92.21
2023-07-18T01:37:43.968Z,92.35
2023-07-18T01:38:43.889Z,92.35
2023-07-18T01:40:04.786Z,93.31
2023-07-18T01:40:43.737Z,93.21
2023-07-18T01:41:43.653Z,91.02
2023-07-18T01:42:43.581Z,91.78
2023-07-18T01:43:43.490Z,92.45
2023-07-18T01:44:43.458Z,92.54
2023-07-18T01:46:04.338Z,92.45
2023-07-18T01:46:43.266Z,92.64
2023-07-18T01:47:43.177Z,92.64
2023-07-18T01:48:43.097Z,90.73
2023-07-18T01:49:43.011Z,90.11
2023-07-18T01:50:42.944Z,90.88
2023-07-18T01:52:03.844Z,91.35
2023-07-18T01:52:42.787Z,92.21
2023-07-18T01:53:42.703Z,92.11
2023-07-18T01:54:42.639Z,93.07
2023-07-18T01:55:42.551Z,93.45
2023-07-18T01:56:42.485Z,93.21
2023-07-18T01:58:03.378Z,93.26
2023-07-18T01:58:42.329Z,93.21
2023-07-18T01:59:42.238Z,92.50
2023-07-18T02:00:42.204Z,91.45
2023-07-18T02:01:42.082Z,91.54
2023-07-18T02:02:42.162Z,91.06
2023-07-18T02:04:02.910Z,91.45
2023-07-18T02:04:41.852Z,92.30
2023-07-18T02:05:41.763Z,92.69
2023-07-18T02:06:41.693Z,93.26
2023-07-18T02:07:41.614Z,93.65
2023-07-18T02:08:41.536Z,93.84
2023-07-18T02:10:02.449Z,93.84
2023-07-18T02:10:41.371Z,93.16
2023-07-18T02:11:41.303Z,92.30
2023-07-18T02:12:41.220Z,93.36
2023-07-18T02:13:41.213Z,93.26
2023-07-18T02:14:41.069Z,93.74
2023-07-18T02:16:01.972Z,93.74
2023-07-18T02:16:40.926Z,94.02
2023-07-18T02:17:41.966Z,93.55
2023-07-18T02:18:40.751Z,93.55
2023-07-18T02:19:40.674Z,93.26
2023-07-18T02:20:40.595Z,92.97
2023-07-18T02:22:01.517Z,92.50
2023-07-18T02:22:40.460Z,91.64
2023-07-18T02:23:40.360Z,90.59
2023-07-18T02:24:40.285Z,91.45
2023-07-18T02:25:40.214Z,91.93
2023-07-18T02:26:40.136Z,92.69
2023-07-18T02:28:01.045Z,92.50
2023-07-18T02:28:39.980Z,92.69
2023-07-18T02:29:39.906Z,93.21
2023-07-18T02:30:39.856Z,94.55
2023-07-18T02:31:39.741Z,94.74
2023-07-18T02:32:39.694Z,94.65
2023-07-18T02:34:00.579Z,95.03
2023-07-18T02:34:39.730Z,95.61
2023-07-18T02:35:39.429Z,95.61
2023-07-18T02:36:39.353Z,96.94
2023-07-18T02:37:39.262Z,97.80
2023-07-18T02:38:39.194Z,97.61
2023-07-18T02:40:00.123Z,97.13
2023-07-18T02:40:39.035Z,97.89
2023-07-18T02:41:38.957Z,97.03
2023-07-18T02:42:38.945Z,97.99
2023-07-18T02:43:38.795Z,96.84
2023-07-18T02:44:38.714Z,96.46
2023-07-18T02:45:59.630Z,95.84
2023-07-18T02:46:38.631Z,95.94
2023-07-18T02:47:38.536Z,95.27
2023-07-18T02:48:38.436Z,94.31
2023-07-18T02:49:38.320Z,94.41
2023-07-18T02:50:38.240Z,94.51
2023-07-18T02:51:59.151Z,94.60
2023-07-18T02:52:38.093Z,93.16
2023-07-18T02:53:38.006Z,92.21
2023-07-18T02:54:37.926Z,92.07
2023-07-18T02:55:37.858Z,92.36
2023-07-18T02:56:37.774Z,93.21
2023-07-18T02:57:58.670Z,93.60
2023-07-18T02:58:37.622Z,94.36
2023-07-18T02:59:37.554Z,94.65
2023-07-18T03:00:37.462Z,94.74
2023-07-18T03:01:37.403Z,94.55
2023-07-18T03:02:37.379Z,94.70
2023-07-18T03:03:58.268Z,94.31
2023-07-18T03:04:37.193Z,93.74
2023-07-18T03:05:37.071Z,93.74
2023-07-18T03:06:36.985Z,93.74
2023-07-18T03:07:36.924Z,93.74
2023-07-18T03:08:36.829Z,93.93
2023-07-18T03:09:57.731Z,94.51
2023-07-18T03:10:36.684Z,94.41
2023-07-18T03:11:36.599Z,94.41
2023-07-18T03:12:36.512Z,94.51
2023-07-18T03:13:36.441Z,94.41
2023-07-18T03:14:36.356Z,93.84
2023-07-18T03:15:57.383Z,92.30
2023-07-18T03:16:36.236Z,90.83
2023-07-18T03:17:36.160Z,90.92
2023-07-18T03:18:36.040Z,92.16
2023-07-18T03:19:35.963Z,92.60
2023-07-18T03:20:35.880Z,93.50
2023-07-18T03:21:56.792Z,94.36
2023-07-18T03:22:35.739Z,94.74
2023-07-18T03:23:35.660Z,94.31
2023-07-18T03:24:35.588Z,94.70
2023-07-18T03:25:35.494Z,95.08
2023-07-18T03:26:35.408Z,94.79
2023-07-18T03:27:56.319Z,95.84
2023-07-18T03:28:35.272Z,95.56
2023-07-18T03:29:35.197Z,95.46
2023-07-18T03:30:35.101Z,95.56
2023-07-18T03:31:35.069Z,95.75
2023-07-18T03:32:34.963Z,95.79
2023-07-18T03:33:55.846Z,95.27
2023-07-18T03:34:34.785Z,95.17
2023-07-18T03:35:34.711Z,94.98
2023-07-18T03:36:34.623Z,95.41
2023-07-18T03:37:34.549Z,95.36
2023-07-18T03:38:34.473Z,95.03
2023-07-18T03:39:55.372Z,94.36
2023-07-18T03:40:34.310Z,95.12
2023-07-18T03:41:34.241Z,95.61
2023-07-18T03:42:34.156Z,94.74
2023-07-18T03:43:34.076Z,95.03
2023-07-18T03:44:33.991Z,94.55
2023-07-18T03:45:54.963Z,93.17
2023-07-18T03:46:33.932Z,92.79
2023-07-18T03:47:33.775Z,92.97
2023-07-18T03:48:33.718Z,93.93
2023-07-18T03:49:33.600Z,95.36
2023-07-18T03:50:33.521Z,94.89
2023-07-18T03:51:54.429Z,95.61
2023-07-18T03:52:33.364Z,96.22
2023-07-18T03:53:33.365Z,96.80
2023-07-18T03:54:33.206Z,96.98
2023-07-18T03:55:33.126Z,97.66
2023-07-18T03:56:33.055Z,97.66
2023-07-18T03:57:53.951Z,96.13
2023-07-18T03:58:32.897Z,95.94
2023-07-18T03:59:32.894Z,95.75
2023-07-18T04:00:32.737Z,95.75
2023-07-18T04:01:32.699Z,96.13
2023-07-18T04:02:32.629Z,96.70
2023-07-18T04:03:53.492Z,98.13
2023-07-18T04:04:32.433Z,97.47
2023-07-18T04:05:32.344Z,97.75
2023-07-18T04:06:32.261Z,98.32
2023-07-18T04:07:32.187Z,99.08
2023-07-18T04:08:32.099Z,97.94
2023-07-18T04:09:53.032Z,97.89
2023-07-18T04:10:31.978Z,97.66
2023-07-18T04:11:31.878Z,97.27
2023-07-18T04:12:31.795Z,96.42
2023-07-18T04:13:31.711Z,95.94
2023-07-18T04:14:31.632Z,96.98
2023-07-18T04:15:52.556Z,97.47
2023-07-18T04:16:31.502Z,98.03
2023-07-18T04:17:31.460Z,97.94
2023-07-18T04:18:31.314Z,98.28
2023-07-18T04:19:31.241Z,98.94
2023-07-18T04:20:31.155Z,98.37
2023-07-18T04:21:52.065Z,98.28
2023-07-18T04:22:31.042Z,97.89
2023-07-18T04:23:30.928Z,98.08
2023-07-18T04:24:30.848Z,98.57
2023-07-18T04:25:30.768Z,98.08
2023-07-18T04:26:30.686Z,98.28
2023-07-18T04:27:51.589Z,98.08
2023-07-18T04:28:30.546Z,97.71
2023-07-18T04:29:30.452Z,98.08
2023-07-18T04:30:30.378Z,97.71
2023-07-18T04:31:30.295Z,98.18
2023-07-18T04:32:30.217Z,97.47
2023-07-18T04:33:51.113Z,97.66
2023-07-18T04:34:30.077Z,97.85
2023-07-18T04:35:29.975Z,98.42
2023-07-18T04:36:29.904Z,98.90
2023-07-18T04:37:29.845Z,98.71
2023-07-18T04:38:29.746Z,99.09
2023-07-18T04:39:50.643Z,98.90
2023-07-18T04:40:29.581Z,98.33
2023-07-18T04:41:41.375Z,98.23
2023-07-18T04:42:29.424Z,97.18
2023-07-18T04:43:29.356Z,96.99
2023-07-18T04:44:29.265Z,97.56
2023-07-18T04:45:50.186Z,98.13
2023-07-18T04:46:29.155Z,99.28
2023-07-18T04:47:29.077Z,99.19
2023-07-18T04:48:28.954Z,99.66
2023-07-18T04:49:28.871Z,99.19
2023-07-18T04:50:30.357Z,98.61
2023-07-18T04:51:49.740Z,98.90
2023-07-18T04:52:28.639Z,98.80
2023-07-18T04:53:28.569Z,97.85
2023-07-18T04:54:28.487Z,97.85
2023-07-18T04:55:28.401Z,97.94
2023-07-18T04:56:28.321Z,97.56
2023-07-18T04:57:49.226Z,97.94
2023-07-18T04:58:28.169Z,99.19
2023-07-18T04:59:28.083Z,98.90
2023-07-18T05:00:28.010Z,99.04
2023-07-18T05:01:27.962Z,99.99
2023-07-18T05:02:27.858Z,99.99
2023-07-18T05:03:57.689Z,99.99
2023-07-18T05:04:27.732Z,99.99
2023-07-18T05:05:27.618Z,99.99
2023-07-18T05:06:27.542Z,99.90
2023-07-18T05:07:27.451Z,99.24
2023-07-18T05:08:27.372Z,98.09
2023-07-18T05:09:48.290Z,99.14
2023-07-18T05:10:27.226Z,98.47
2023-07-18T05:11:27.139Z,97.99
2023-07-18T05:12:27.072Z,97.90
2023-07-18T05:13:26.979Z,97.90
2023-07-18T05:14:26.923Z,97.99
2023-07-18T05:15:47.828Z,97.71
2023-07-18T05:16:26.839Z,97.90
2023-07-18T05:17:26.691Z,96.94
2023-07-18T05:18:26.591Z,98.24
2023-07-18T05:19:26.516Z,98.24
2023-07-18T05:20:28.948Z,97.66
2023-07-18T05:21:47.341Z,97.85
2023-07-18T05:22:26.315Z,97.47
2023-07-18T05:23:26.301Z,97.95
2023-07-18T05:24:26.131Z,98.14
2023-07-18T05:25:26.068Z,97.95
2023-07-18T05:26:26.088Z,98.71
2023-07-18T05:27:46.864Z,97.95
2023-07-18T05:28:25.812Z,96.70
2023-07-18T05:29:25.728Z,95.65
2023-07-18T05:30:25.644Z,95.17
2023-07-18T05:31:25.602Z,95.36
2023-07-18T05:32:25.521Z,94.98
2023-07-18T05:33:46.459Z,93.93
2023-07-18T05:34:27.858Z,93.93
2023-07-18T05:35:25.262Z,93.98
2023-07-18T05:36:25.180Z,94.17
2023-07-18T05:37:25.094Z,93.21
2023-07-18T05:38:25.015Z,92.35
2023-07-18T05:39:45.965Z,92.06
2023-07-18T05:40:24.869Z,92.44
2023-07-18T05:41:24.806Z,91.58
2023-07-18T05:42:24.708Z,91.49
2023-07-18T05:43:24.635Z,91.49
2023-07-18T05:44:24.553Z,91.30
2023-07-18T05:45:45.470Z,91.20
2023-07-18T05:46:24.438Z,90.91
2023-07-18T05:47:24.375Z,91.20
2023-07-18T05:48:24.236Z,91.11
2023-07-18T05:49:24.167Z,91.05
2023-07-18T05:50:24.080Z,91.44
2023-07-18T05:51:44.988Z,91.63
2023-07-18T05:52:23.926Z,90.86
2023-07-18T05:53:23.848Z,91.15
2023-07-18T05:54:23.773Z,90.39
2023-07-18T05:55:23.751Z,90.48
2023-07-18T05:56:23.621Z,90.29
2023-07-18T05:57:44.526Z,90.19
2023-07-18T05:58:23.452Z,89.72
2023-07-18T05:59:23.380Z,89.81
2023-07-18T06:00:23.301Z,89.72
2023-07-18T06:01:23.431Z,89.04
2023-07-18T06:02:23.157Z,89.04
2023-07-18T06:03:44.156Z,89.47
2023-07-18T06:04:23.019Z,91.00
2023-07-18T06:05:22.910Z,90.43
2023-07-18T06:06:22.836Z,89.37
2023-07-18T06:07:22.763Z,89.47
2023-07-18T06:08:22.681Z,88.90
2023-07-18T06:09:43.660Z,88.23
2023-07-18T06:10:22.529Z,88.90
2023-07-18T06:11:22.449Z,88.42
2023-07-18T06:12:22.371Z,88.90
2023-07-18T06:13:22.300Z,88.23
2023-07-18T06:14:22.213Z,88.03
2023-07-18T06:15:43.116Z,86.74
2023-07-18T06:16:22.070Z,86.35
2023-07-18T06:17:22.117Z,86.25
2023-07-18T06:18:22.100Z,86.25
2023-07-18T06:19:21.823Z,86.83
2023-07-18T06:20:21.752Z,86.35
2023-07-18T06:21:42.648Z,85.78
2023-07-18T06:22:21.586Z,84.91
2023-07-18T06:23:21.508Z,84.28
2023-07-18T06:24:21.435Z,84.95
2023-07-18T06:25:21.361Z,83.71
2023-07-18T06:26:21.281Z,82.85
2023-07-18T06:27:42.182Z,82.85
2023-07-18T06:28:21.121Z,82.75
2023-07-18T06:29:21.314Z,82.75
2023-07-18T06:30:20.980Z,82.65
2023-07-18T06:31:21.227Z,83.23
2023-07-18T06:32:20.814Z,82.75
2023-07-18T06:33:41.708Z,82.79
2023-07-18T06:34:20.673Z,84.33
2023-07-18T06:35:23.619Z,83.37
2023-07-18T06:36:20.532Z,83.37
2023-07-18T06:37:20.428Z,82.79
2023-07-18T06:38:20.346Z,82.41
2023-07-18T06:39:41.379Z,81.74
2023-07-18T06:40:20.212Z,81.74
2023-07-18T06:41:20.453Z,82.03
2023-07-18T06:42:20.041Z,82.45
2023-07-18T06:43:19.964Z,82.35
2023-07-18T06:44:19.894Z,83.03
2023-07-18T06:45:41.819Z,81.87
2023-07-18T06:46:19.765Z,81.40
2023-07-18T06:47:19.660Z,80.82
2023-07-18T06:48:19.576Z,80.15
2023-07-18T06:49:19.500Z,79.61
2023-07-18T06:50:19.415Z,79.32
2023-07-18T06:51:40.337Z,79.03
2023-07-18T06:52:19.265Z,78.36
2023-07-18T06:53:19.182Z,78.75
2023-07-18T06:54:19.109Z,78.65
2023-07-18T06:55:19.035Z,79.42
2023-07-18T06:56:18.960Z,78.94
2023-07-18T06:57:42.538Z,77.34
2023-07-18T06:58:18.847Z,78.21
2023-07-18T06:59:18.729Z,78.02
2023-07-18T07:00:18.650Z,79.07
2023-07-18T07:01:19.031Z,78.69
2023-07-18T07:02:18.501Z,79.17
2023-07-18T07:03:39.497Z,77.34
2023-07-18T07:04:18.492Z,76.86
2023-07-18T07:05:18.291Z,77.53
2023-07-18T07:06:18.210Z,77.58
2023-07-18T07:07:18.112Z,76.14
2023-07-18T07:08:18.041Z,76.04
2023-07-18T07:09:38.933Z,75.94
2023-07-18T07:10:17.881Z,75.37
2023-07-18T07:11:18.060Z,75.65
2023-07-18T07:12:30.613Z,75.65
2023-07-18T07:13:17.643Z,75.75
2023-07-18T07:14:17.574Z,75.40
2023-07-18T07:15:38.478Z,74.54
2023-07-18T07:16:17.507Z,75.02
2023-07-18T07:17:17.456Z,74.82
2023-07-18T07:18:17.266Z,76.36
2023-07-18T07:19:17.194Z,75.73
2023-07-18T07:20:17.120Z,75.73
2023-07-18T07:21:38.014Z,75.15
2023-07-18T07:22:16.959Z,74.48
2023-07-18T07:23:16.916Z,73.61
2023-07-18T07:24:16.812Z,73.13
2023-07-18T07:25:16.732Z,72.74
2023-07-18T07:26:16.649Z,73.32
2023-07-18T07:27:37.552Z,73.65
2023-07-18T07:28:16.504Z,72.59
2023-07-18T07:29:19.245Z,71.43
2023-07-18T07:30:16.555Z,71.53
2023-07-18T07:31:16.368Z,71.24
2023-07-18T07:32:16.233Z,71.24
2023-07-18T07:33:37.509Z,71.66
2023-07-18T07:34:16.048Z,71.28
2023-07-18T07:35:15.966Z,71.66
2023-07-18T07:36:15.889Z,70.79
2023-07-18T07:37:15.816Z,69.48
2023-07-18T07:38:15.775Z,70.35
2023-07-18T07:39:36.651Z,68.48
2023-07-18T07:40:15.589Z,69.48
2023-07-18T07:41:15.509Z,69.67
2023-07-18T07:42:15.451Z,68.80
2023-07-18T07:43:15.368Z,69.48
2023-07-18T07:44:15.293Z,70.25
2023-07-18T07:45:36.204Z,69.48
2023-07-18T07:46:15.158Z,68.93
2023-07-18T07:47:15.059Z,69.32
2023-07-18T07:48:14.985Z,68.55
2023-07-18T07:49:15.047Z,68.74
2023-07-18T07:50:14.845Z,68.01
2023-07-18T07:51:35.750Z,69.16
2023-07-18T07:52:14.704Z,68.01
2023-07-18T07:53:14.611Z,68.29
2023-07-18T07:54:14.533Z,68.77
2023-07-18T07:55:14.477Z,68.01
2023-07-18T07:56:14.383Z,67.85
2023-07-18T07:57:35.291Z,67.36
2023-07-18T07:58:14.238Z,66.49
2023-07-18T07:59:14.170Z,65.05
2023-07-18T08:00:14.123Z,63.40
2023-07-18T08:01:14.023Z,63.70
2023-07-18T08:02:14.071Z,64.47
2023-07-18T08:03:34.849Z,64.59
2023-07-18T08:04:13.840Z,65.95
2023-07-18T08:05:13.824Z,64.69
2023-07-18T08:06:13.651Z,65.37
2023-07-18T08:07:13.560Z,64.34
2023-07-18T08:08:13.498Z,64.53
2023-07-18T08:09:34.411Z,64.34
2023-07-18T08:10:13.348Z,63.79
2023-07-18T08:11:13.272Z,63.79
2023-07-18T08:12:13.211Z,63.69
2023-07-18T08:13:13.121Z,61.95
2023-07-18T08:14:13.090Z,63.50
2023-07-18T08:15:33.958Z,63.02
2023-07-18T08:16:12.923Z,62.95
2023-07-18T08:17:12.866Z,63.82
2023-07-18T08:18:12.758Z,61.60
2023-07-18T08:19:12.684Z,62.37
2023-07-18T08:20:12.598Z,62.66
2023-07-18T08:21:33.518Z,61.98
2023-07-18T08:22:12.456Z,62.79
2023-07-18T08:23:12.452Z,60.85
2023-07-18T08:24:12.310Z,60.47
2023-07-18T08:25:12.238Z,57.86
2023-07-18T08:26:12.169Z,57.59
2023-07-18T08:27:33.072Z,58.72
2023-07-18T08:28:12.012Z,60.50
2023-07-18T08:29:11.985Z,60.40
2023-07-18T08:30:11.871Z,58.27
2023-07-18T08:31:11.808Z,58.47
2023-07-18T08:32:11.782Z,57.40
2023-07-18T08:33:32.635Z,56.50
2023-07-18T08:34:11.585Z,57.30
2023-07-18T08:35:11.507Z,57.98
2023-07-18T08:36:11.440Z,59.63
2023-07-18T08:37:11.410Z,58.27
2023-07-18T08:38:11.284Z,57.62
2023-07-18T08:39:32.202Z,58.59
2023-07-18T08:40:11.185Z,57.14
2023-07-18T08:41:11.074Z,55.20
2023-07-18T08:42:11.007Z,55.98
2023-07-18T08:43:10.931Z,55.00
2023-07-18T08:44:10.859Z,54.13
2023-07-18T08:45:31.756Z,53.49
2023-07-18T08:46:10.717Z,54.62
2023-07-18T08:47:10.665Z,54.94
2023-07-18T08:48:10.589Z,55.81
2023-07-18T08:49:10.488Z,54.26
2023-07-18T08:50:10.426Z,53.61
2023-07-18T08:51:31.332Z,54.38
2023-07-18T08:52:10.267Z,54.38
2023-07-18T08:53:10.312Z,53.61
2023-07-18T08:54:10.127Z,53.63
2023-07-18T08:55:10.081Z,52.86
2023-07-18T08:56:10.017Z,52.28
2023-07-18T08:57:30.890Z,52.86
2023-07-18T08:58:09.838Z,52.95
2023-07-18T08:59:09.766Z,50.53
2023-07-18T09:00:09.697Z,50.84
2023-07-18T09:01:09.624Z,51.14
2023-07-18T09:02:09.596Z,50.46
2023-07-18T09:03:30.527Z,50.07
2023-07-18T09:04:09.454Z,51.14
2023-07-18T09:05:09.340Z,50.16
2023-07-18T09:06:09.269Z,50.16
2023-07-18T09:07:09.220Z,50.56
2023-07-18T09:08:09.146Z,50.36
2023-07-18T09:09:30.117Z,50.16
2023-07-18T09:10:08.975Z,51.43
2023-07-18T09:11:08.910Z,53.95
2023-07-18T09:12:08.838Z,54.94
2023-07-18T09:13:08.808Z,55.14
2023-07-18T09:14:08.690Z,51.16
2023-07-18T09:15:29.608Z,50.48
2023-07-18T09:16:08.551Z,51.65
2023-07-18T09:17:08.509Z,52.33
2023-07-18T09:18:08.673Z,52.33
2023-07-18T09:19:08.345Z,51.26
2023-07-18T09:20:08.263Z,51.35
2023-07-18T09:21:29.182Z,52.13
2023-07-18T09:22:08.163Z,50.87
2023-07-18T09:23:08.064Z,48.05
2023-07-18T09:24:07.986Z,49.12
2023-07-18T09:25:07.957Z,49.99
2023-07-18T09:26:07.849Z,50.29
2023-07-18T09:27:28.752Z,50.60
2023-07-18T09:28:07.701Z,49.32
2023-07-18T09:29:07.628Z,50.31
2023-07-18T09:30:09.821Z,50.70
2023-07-18T09:31:07.601Z,49.73
2023-07-18T09:32:07.433Z,50.21
2023-07-18T09:33:28.327Z,52.19
2023-07-18T09:34:07.275Z,48.78
2023-07-18T09:35:07.208Z,50.34
2023-07-18T09:36:07.142Z,49.17
2023-07-18T09:37:07.120Z,48.88
2023-07-18T09:38:06.995Z,50.46
2023-07-18T09:39:27.904Z,50.16
2023-07-18T09:40:06.855Z,49.00
2023-07-18T09:41:08.527Z,46.67
2023-07-18T09:42:10.581Z,46.96
2023-07-18T09:43:06.653Z,47.08
2023-07-18T09:44:28.436Z,47.44
2023-07-18T09:45:27.484Z,48.25
2023-07-18T09:46:06.467Z,49.22
2023-07-18T09:47:06.363Z,47.37
2023-07-18T09:48:06.307Z,46.98
2023-07-18T09:49:06.226Z,47.27
2023-07-18T09:50:06.167Z,46.98
2023-07-18T09:51:27.066Z,48.25
2023-07-18T09:52:06.013Z,48.83
2023-07-18T09:53:05.945Z,48.34
2023-07-18T09:54:06.063Z,47.20
2023-07-18T09:55:05.804Z,48.95
2023-07-18T09:56:05.736Z,47.69
2023-07-18T09:57:26.727Z,47.39
2023-07-18T09:58:05.616Z,46.44
2023-07-18T09:59:05.522Z,45.76
2023-07-18T10:00:05.449Z,46.54
2023-07-18T10:01:05.426Z,46.34
2023-07-18T10:02:05.328Z,47.20
2023-07-18T10:03:26.285Z,47.30
2023-07-18T10:04:05.237Z,45.45
2023-07-18T10:05:05.117Z,47.78
2023-07-18T10:06:05.032Z,48.39
2023-07-18T10:07:04.974Z,47.03
2023-07-18T10:08:04.904Z,45.47
2023-07-18T10:09:25.816Z,47.42
2023-07-18T10:10:04.758Z,47.52
2023-07-18T10:11:04.699Z,48.90
2023-07-18T10:12:04.730Z,47.73
2023-07-18T10:13:04.601Z,45.68
2023-07-18T10:14:04.490Z,45.03
2023-07-18T10:15:25.406Z,43.47
2023-07-18T10:16:04.364Z,45.32
2023-07-18T10:17:04.330Z,46.30
2023-07-18T10:18:04.227Z,45.22
2023-07-18T10:19:04.149Z,45.20
2023-07-18T10:20:04.077Z,44.79
2023-07-18T10:21:24.986Z,46.08
2023-07-18T10:22:03.932Z,46.47
2023-07-18T10:23:03.924Z,45.98
2023-07-18T10:24:03.798Z,44.73
2023-07-18T10:25:03.723Z,44.23
2023-07-18T10:26:03.656Z,43.95
2023-07-18T10:27:24.578Z,45.03
2023-07-18T10:28:03.524Z,45.51
2023-07-18T10:29:03.539Z,45.03
2023-07-18T10:30:03.387Z,44.05
2023-07-18T10:31:03.348Z,43.84
2023-07-18T10:32:03.255Z,43.74
2023-07-18T10:33:24.165Z,43.74
2023-07-18T10:34:03.106Z,44.10
2023-07-18T10:35:03.049Z,44.10
2023-07-18T10:36:03.002Z,43.99
2023-07-18T10:37:02.948Z,44.67
2023-07-18T10:38:02.845Z,44.86
2023-07-18T10:39:23.758Z,45.25
2023-07-18T10:40:02.705Z,46.73
2023-07-18T10:41:02.635Z,47.22
2023-07-18T10:42:02.567Z,46.64
2023-07-18T10:43:02.496Z,46.83
2023-07-18T10:44:02.501Z,46.17
2023-07-18T10:45:23.434Z,44.71
2023-07-18T10:46:02.303Z,43.81
2023-07-18T10:47:02.263Z,44.57
2023-07-18T10:48:02.179Z,45.28
2023-07-18T10:49:02.096Z,44.48
2023-07-18T10:50:02.019Z,44.09
2023-07-18T10:51:22.941Z,44.38
2023-07-18T10:52:01.890Z,44.57
2023-07-18T10:53:01.816Z,45.86
2023-07-18T10:54:01.743Z,46.83
2023-07-18T10:55:01.694Z,47.15
2023-07-18T10:56:01.727Z,46.37
2023-07-18T10:57:22.537Z,46.17
2023-07-18T10:58:01.466Z,44.93
2023-07-18T10:59:01.401Z,44.93
2023-07-18T11:00:01.328Z,46.69
2023-07-18T11:01:01.312Z,46.00
2023-07-18T11:02:01.201Z,43.25
2023-07-18T11:03:22.215Z,43.44
2023-07-18T11:04:01.126Z,44.23
2023-07-18T11:05:00.995Z,46.27
2023-07-18T11:06:00.932Z,48.22
2023-07-18T11:07:00.863Z,47.46
2023-07-18T11:08:00.788Z,47.46
2023-07-18T11:09:22.629Z,46.12
2023-07-18T11:10:00.663Z,46.41
2023-07-18T11:11:00.598Z,44.27
2023-07-18T11:12:00.522Z,42.41
2023-07-18T11:13:00.459Z,42.12
2023-07-18T11:14:00.391Z,42.32
2023-07-18T11:15:21.313Z,43.19
2023-07-18T11:16:00.263Z,43.78
2023-07-18T11:17:00.258Z,43.39
2023-07-18T11:18:00.136Z,43.59
2023-07-18T11:19:00.044Z,43.59
2023-07-18T11:19:59.973Z,44.66
2023-07-18T11:21:21.298Z,46.14
2023-07-18T11:21:59.832Z,45.36
2023-07-18T11:22:59.866Z,43.51
2023-07-18T11:23:59.698Z,43.61
2023-07-18T11:24:59.649Z,43.04
2023-07-18T11:25:59.602Z,42.83
2023-07-18T11:27:20.484Z,40.47
2023-07-18T11:27:59.427Z,39.96
2023-07-18T11:28:59.368Z,40.83
2023-07-18T11:29:59.303Z,41.79
2023-07-18T11:30:59.252Z,42.86
2023-07-18T11:31:59.179Z,43.44
2023-07-18T11:33:20.083Z,43.05
2023-07-18T11:33:59.032Z,43.15
2023-07-18T11:34:58.958Z,43.64
2023-07-18T11:35:58.903Z,43.84
2023-07-18T11:36:58.824Z,43.15
2023-07-18T11:37:58.756Z,42.47
2023-07-18T11:39:20.707Z,44.42
2023-07-18T11:39:58.622Z,44.32
2023-07-18T11:40:58.549Z,45.10
2023-07-18T11:41:58.491Z,46.97
2023-07-18T11:42:58.418Z,46.69
2023-07-18T11:43:58.352Z,45.32
2023-07-18T11:45:21.253Z,43.47
2023-07-18T11:45:58.214Z,43.57
2023-07-18T11:46:58.151Z,42.20
2023-07-18T11:47:58.131Z,45.03
2023-07-18T11:48:58.075Z,45.92
2023-07-18T11:49:57.955Z,46.12
2023-07-18T11:51:19.109Z,45.92
2023-07-18T11:51:57.810Z,43.95
2023-07-18T11:52:57.735Z,44.46
2023-07-18T11:53:57.667Z,44.27
2023-07-18T11:54:57.605Z,43.98
2023-07-18T11:55:57.550Z,43.68
2023-07-18T11:57:18.456Z,44.27
2023-07-18T11:57:57.395Z,44.27
2023-07-18T11:58:57.333Z,44.66
2023-07-18T11:59:57.268Z,44.76
2023-07-18T12:00:57.200Z,44.56
2023-07-18T12:01:57.215Z,43.39
2023-07-18T12:03:18.115Z,42.22
2023-07-18T12:03:57.094Z,42.51
2023-07-18T12:04:56.943Z,42.71
2023-07-18T12:05:56.871Z,42.02
2023-07-18T12:06:56.832Z,43.78
2023-07-18T12:07:56.720Z,44.17
2023-07-18T12:09:17.641Z,43.78
2023-07-18T12:09:56.588Z,44.85
2023-07-18T12:11:04.580Z,42.69
2023-07-18T12:11:56.468Z,43.47
2023-07-18T12:12:56.426Z,42.38
2023-07-18T12:13:56.314Z,43.25
2023-07-18T12:15:17.244Z,43.15
2023-07-18T12:15:56.185Z,45.59
2023-07-18T12:16:56.150Z,46.56
2023-07-18T12:17:56.073Z,46.39
2023-07-18T12:18:55.988Z,45.22
2023-07-18T12:19:55.914Z,43.37
2023-07-18T12:21:17.045Z,44.54
2023-07-18T12:21:55.781Z,42.61
2023-07-18T12:22:55.738Z,42.98
2023-07-18T12:23:55.641Z,42.40
2023-07-18T12:24:55.593Z,43.59
2023-07-18T12:25:55.515Z,42.59
2023-07-18T12:27:16.467Z,42.10
2023-07-18T12:27:55.378Z,43.95
2023-07-18T12:28:55.393Z,43.57
2023-07-18T12:29:55.239Z,42.25
2023-07-18T12:30:55.267Z,44.09
2023-07-18T12:31:55.265Z,44.86
2023-07-18T12:33:16.063Z,46.51
2023-07-18T12:33:54.963Z,45.45
2023-07-18T12:34:54.897Z,44.74
2023-07-18T12:35:54.832Z,46.59
2023-07-18T12:36:54.834Z,46.01
2023-07-18T12:37:55.605Z,46.61
2023-07-18T12:39:15.619Z,46.42
2023-07-18T12:39:54.600Z,45.74
2023-07-18T12:40:54.491Z,45.54
2023-07-18T12:41:54.433Z,44.16
2023-07-18T12:42:54.350Z,44.09
2023-07-18T12:43:54.284Z,44.84
2023-07-18T12:45:15.206Z,45.84
2023-07-18T12:45:54.153Z,47.10
2023-07-18T12:46:54.100Z,46.61
2023-07-18T12:47:54.122Z,46.54
2023-07-18T12:49:57.045Z,45.28
2023-07-18T12:51:14.794Z,44.59
2023-07-18T12:51:53.743Z,44.30
2023-07-18T12:52:53.696Z,45.08